createdAt,value
2017-12-25T00:00:32.711Z,1012.32
2017-12-25T00:01:32.692Z,1012.32
2017-12-25T00:02:32.675Z,1012.26
2017-12-25T00:03:32.657Z,1012.21
2017-12-25T00:04:32.638Z,1012.24
2017-12-25T00:05:32.619Z,1012.3
2017-12-25T00:06:32.601Z,1012.26
2017-12-25T00:07:32.581Z,1012.29
2017-12-25T00:08:32.563Z,1012.26
2017-12-25T00:09:32.545Z,1012.26
2017-12-25T00:10:32.525Z,1012.3
2017-12-25T00:11:32.506Z,1012.4
2017-12-25T00:12:32.490Z,1012.31
2017-12-25T00:13:32.471Z,1012.27
2017-12-25T00:14:32.450Z,1012.22
2017-12-25T00:15:32.432Z,1012.2
2017-12-25T00:16:32.414Z,1012.15
2017-12-25T00:17:32.394Z,1012.17
2017-12-25T00:18:32.378Z,1012.21
2017-12-25T00:19:32.409Z,1012.2
2017-12-25T00:20:32.343Z,1012.15
2017-12-25T00:21:32.321Z,1012.15
2017-12-25T00:22:32.303Z,1012.14
2017-12-25T00:23:32.283Z,1012.14
2017-12-25T00:24:32.266Z,1012.17
2017-12-25T00:25:32.247Z,1012.17
2017-12-25T00:26:32.230Z,1012.18
2017-12-25T00:27:32.213Z,1012.18
2017-12-25T00:28:32.196Z,1012.15
2017-12-25T00:29:32.173Z,1012.07
2017-12-25T00:30:32.158Z,1012.14
2017-12-25T00:31:32.136Z,1012.11
2017-12-25T00:32:32.119Z,1012.11
2017-12-25T00:33:32.106Z,1012.14
2017-12-25T00:34:32.082Z,1012.11
2017-12-25T00:35:32.069Z,1012.04
2017-12-25T00:36:32.044Z,1012.08
2017-12-25T00:37:32.028Z,1012.01
2017-12-25T00:38:32.010Z,1012
2017-12-25T00:39:31.989Z,1012.03
2017-12-25T00:40:31.974Z,1012.06
2017-12-25T00:41:31.953Z,1011.96
2017-12-25T00:42:31.935Z,1011.99
2017-12-25T00:43:31.917Z,1011.97
2017-12-25T00:44:31.899Z,1012.03
2017-12-25T00:45:31.879Z,1012.02
2017-12-25T00:46:31.863Z,1011.99
2017-12-25T00:47:31.843Z,1012.04
2017-12-25T00:48:31.830Z,1011.97
2017-12-25T00:49:31.805Z,1011.98
2017-12-25T00:50:31.788Z,1012
2017-12-25T00:51:31.768Z,1012.01
2017-12-25T00:52:31.750Z,1011.98
2017-12-25T00:53:31.734Z,1011.96
2017-12-25T00:54:31.715Z,1011.98
2017-12-25T00:55:31.695Z,1011.96
2017-12-25T00:56:31.677Z,1011.99
2017-12-25T00:57:31.660Z,1011.95
2017-12-25T00:58:31.642Z,1011.94
2017-12-25T00:59:31.622Z,1011.89
2017-12-25T01:00:31.605Z,1011.83
2017-12-25T01:01:31.587Z,1011.88
2017-12-25T01:02:31.568Z,1011.88
2017-12-25T01:03:31.602Z,1011.81
2017-12-25T01:04:31.533Z,1011.83
2017-12-25T01:05:31.513Z,1011.82
2017-12-25T01:06:31.495Z,1011.83
2017-12-25T01:07:31.478Z,1011.78
2017-12-25T01:08:31.456Z,1011.77
2017-12-25T01:09:31.439Z,1011.77
2017-12-25T01:10:31.421Z,1011.73
2017-12-25T01:11:31.401Z,1011.75
2017-12-25T01:12:31.433Z,1011.77
2017-12-25T01:13:31.364Z,1011.76
2017-12-25T01:14:31.346Z,1011.77
2017-12-25T01:15:31.329Z,1011.75
2017-12-25T01:16:31.308Z,1011.76
2017-12-25T01:17:31.290Z,1011.77
2017-12-25T01:18:31.275Z,1011.69
2017-12-25T01:19:31.253Z,1011.75
2017-12-25T01:20:31.235Z,1011.76
2017-12-25T01:21:31.218Z,1011.74
2017-12-25T01:22:31.201Z,1011.72
2017-12-25T01:23:31.181Z,1011.79
2017-12-25T01:24:31.162Z,1011.82
2017-12-25T01:25:31.143Z,1011.78
2017-12-25T01:26:31.126Z,1011.77
2017-12-25T01:27:31.107Z,1011.83
2017-12-25T01:28:31.087Z,1011.7
2017-12-25T01:29:31.069Z,1011.7
2017-12-25T01:30:31.050Z,1011.64
2017-12-25T01:31:31.037Z,1011.66
2017-12-25T01:32:31.013Z,1011.67
2017-12-25T01:33:30.994Z,1011.71
2017-12-25T01:34:30.978Z,1011.67
2017-12-25T01:35:30.958Z,1011.68
2017-12-25T01:36:30.940Z,1011.62
2017-12-25T01:37:30.921Z,1011.72
2017-12-25T01:38:30.901Z,1011.64
2017-12-25T01:39:30.884Z,1011.67
2017-12-25T01:40:30.863Z,1011.64
2017-12-25T01:41:30.845Z,1011.66
2017-12-25T01:42:30.826Z,1011.63
2017-12-25T01:43:30.809Z,1011.68
2017-12-25T01:44:30.798Z,1011.67
2017-12-25T01:45:30.770Z,1011.68
2017-12-25T01:46:30.803Z,1011.69
2017-12-25T01:47:30.737Z,1011.72
2017-12-25T01:48:30.767Z,1011.74
2017-12-25T01:49:30.699Z,1011.72
2017-12-25T01:50:30.678Z,1011.7
2017-12-25T01:51:30.659Z,1011.69
2017-12-25T01:52:30.691Z,1011.59
2017-12-25T01:53:30.627Z,1011.58
2017-12-25T01:54:30.605Z,1011.59
2017-12-25T01:55:30.587Z,1011.55
2017-12-25T01:56:30.566Z,1011.5
2017-12-25T01:57:30.549Z,1011.52
2017-12-25T01:58:30.529Z,1011.5
2017-12-25T01:59:30.511Z,1011.49
2017-12-25T02:00:30.492Z,1011.46
2017-12-25T02:01:30.476Z,1011.47
2017-12-25T02:02:30.455Z,1011.44
2017-12-25T02:03:30.436Z,1011.47
2017-12-25T02:04:30.416Z,1011.38
2017-12-25T02:05:30.398Z,1011.44
2017-12-25T02:06:30.381Z,1011.44
2017-12-25T02:07:30.362Z,1011.46
2017-12-25T02:08:30.344Z,1011.46
2017-12-25T02:09:30.323Z,1011.43
2017-12-25T02:10:30.306Z,1011.47
2017-12-25T02:11:30.289Z,1011.49
2017-12-25T02:12:30.266Z,1011.42
2017-12-25T02:13:30.250Z,1011.35
2017-12-25T02:14:30.230Z,1011.33
2017-12-25T02:15:30.210Z,1011.42
2017-12-25T02:16:30.192Z,1011.31
2017-12-25T02:17:30.175Z,1011.32
2017-12-25T02:18:30.155Z,1011.3
2017-12-25T02:19:30.136Z,1011.33
2017-12-25T02:20:30.128Z,1011.27
2017-12-25T02:21:30.099Z,1011.31
2017-12-25T02:22:30.079Z,1011.31
2017-12-25T02:23:30.061Z,1011.32
2017-12-25T02:24:30.042Z,1011.32
2017-12-25T02:25:30.024Z,1011.36
2017-12-25T02:26:30.005Z,1011.39
2017-12-25T02:27:29.986Z,1011.32
2017-12-25T02:28:29.971Z,1011.28
2017-12-25T02:29:29.947Z,1011.32
2017-12-25T02:30:29.933Z,1011.32
2017-12-25T02:31:29.910Z,1011.29
2017-12-25T02:32:29.894Z,1011.26
2017-12-25T02:33:29.874Z,1011.28
2017-12-25T02:34:29.858Z,1011.24
2017-12-25T02:35:29.837Z,1011.33
2017-12-25T02:36:29.819Z,1011.33
2017-12-25T02:37:29.800Z,1011.3
2017-12-25T02:38:29.780Z,1011.42
2017-12-25T02:39:29.763Z,1011.35
2017-12-25T02:40:29.745Z,1011.36
2017-12-25T02:41:29.725Z,1011.34
2017-12-25T02:42:29.705Z,1011.34
2017-12-25T02:43:29.685Z,1011.33
2017-12-25T02:44:29.668Z,1011.33
2017-12-25T02:45:29.648Z,1011.41
2017-12-25T02:46:29.629Z,1011.33
2017-12-25T02:47:29.610Z,1011.36
2017-12-25T02:48:29.598Z,1011.35
2017-12-25T02:49:29.573Z,1011.31
2017-12-25T02:50:29.556Z,1011.3
2017-12-25T02:51:29.534Z,1011.33
2017-12-25T02:52:29.530Z,1011.31
2017-12-25T02:53:29.497Z,1011.3
2017-12-25T02:54:29.491Z,1011.28
2017-12-25T02:55:29.459Z,1011.32
2017-12-25T02:56:29.446Z,1011.31
2017-12-25T02:57:29.423Z,1011.26
2017-12-25T02:58:29.409Z,1011.35
2017-12-25T02:59:29.383Z,1011.3
2017-12-25T03:00:29.375Z,1011.36
2017-12-25T03:01:29.405Z,1011.28
2017-12-25T03:02:29.352Z,1011.29
2017-12-25T03:03:29.307Z,1011.25
2017-12-25T03:04:29.288Z,1011.24
2017-12-25T03:05:29.274Z,1011.22
2017-12-25T03:06:29.249Z,1011.22
2017-12-25T03:07:29.234Z,1011.27
2017-12-25T03:08:29.216Z,1011.23
2017-12-25T03:09:29.194Z,1011.19
2017-12-25T03:10:29.175Z,1011.24
2017-12-25T03:11:29.155Z,1011.22
2017-12-25T03:12:29.138Z,1011.17
2017-12-25T03:13:29.117Z,1011.21
2017-12-25T03:14:29.098Z,1011.22
2017-12-25T03:15:29.081Z,1011.18
2017-12-25T03:16:29.059Z,1011.15
2017-12-25T03:17:29.041Z,1011.2
2017-12-25T03:18:29.024Z,1011.21
2017-12-25T03:19:29.004Z,1011.18
2017-12-25T03:20:28.985Z,1011.15
2017-12-25T03:21:28.972Z,1011.16
2017-12-25T03:22:28.945Z,1011.2
2017-12-25T03:23:28.932Z,1011.15
2017-12-25T03:24:28.909Z,1011.11
2017-12-25T03:25:28.888Z,1011.16
2017-12-25T03:26:28.872Z,1011.13
2017-12-25T03:27:28.849Z,1011.15
2017-12-25T03:28:28.831Z,1011.16
2017-12-25T03:29:28.812Z,1011.14
2017-12-25T03:30:28.796Z,1011.13
2017-12-25T03:31:28.776Z,1011.09
2017-12-25T03:32:28.755Z,1011.1
2017-12-25T03:33:28.737Z,1011.1
2017-12-25T03:34:28.718Z,1011.05
2017-12-25T03:35:28.700Z,1011.02
2017-12-25T03:36:28.679Z,1011
2017-12-25T03:37:28.660Z,1011.02
2017-12-25T03:38:28.642Z,1010.96
2017-12-25T03:39:28.620Z,1011
2017-12-25T03:40:28.604Z,1011.02
2017-12-25T03:41:28.583Z,1011
2017-12-25T03:42:28.565Z,1010.95
2017-12-25T03:43:28.549Z,1010.96
2017-12-25T03:44:28.526Z,1010.94
2017-12-25T03:45:28.507Z,1010.94
2017-12-25T03:46:28.488Z,1010.88
2017-12-25T03:47:28.466Z,1010.89
2017-12-25T03:48:28.447Z,1010.92
2017-12-25T03:49:28.429Z,1010.89
2017-12-25T03:50:28.409Z,1010.91
2017-12-25T03:51:28.390Z,1010.97
2017-12-25T03:52:28.372Z,1010.86
2017-12-25T03:53:28.351Z,1010.86
2017-12-25T03:54:28.333Z,1010.85
2017-12-25T03:55:28.313Z,1010.87
2017-12-25T03:56:28.295Z,1010.8
2017-12-25T03:57:28.275Z,1010.8
2017-12-25T03:58:28.256Z,1010.84
2017-12-25T03:59:28.261Z,1010.8
2017-12-25T04:00:28.215Z,1010.79
2017-12-25T04:01:28.200Z,1010.76
2017-12-25T04:02:28.177Z,1010.77
2017-12-25T04:03:28.159Z,1010.75
2017-12-25T04:04:28.139Z,1010.75
2017-12-25T04:05:28.119Z,1010.69
2017-12-25T04:06:28.104Z,1010.73
2017-12-25T04:07:28.084Z,1010.7
2017-12-25T04:08:28.065Z,1010.72
2017-12-25T04:09:28.044Z,1010.68
2017-12-25T04:10:28.028Z,1010.73
2017-12-25T04:11:28.006Z,1010.64
2017-12-25T04:12:27.984Z,1010.67
2017-12-25T04:13:27.972Z,1010.62
2017-12-25T04:14:27.947Z,1010.67
2017-12-25T04:15:27.932Z,1010.62
2017-12-25T04:16:27.958Z,1010.62
2017-12-25T04:17:27.893Z,1010.7
2017-12-25T04:19:27.850Z,1010.58
2017-12-25T04:20:27.831Z,1010.56
2017-12-25T04:21:27.812Z,1010.53
2017-12-25T04:22:27.794Z,1010.56
2017-12-25T04:23:27.773Z,1010.53
2017-12-25T04:24:27.756Z,1010.53
2017-12-25T04:25:27.734Z,1010.53
2017-12-25T04:26:27.714Z,1010.51
2017-12-25T04:27:27.698Z,1010.52
2017-12-25T04:28:27.678Z,1010.56
2017-12-25T04:29:27.655Z,1010.5
2017-12-25T04:30:27.640Z,1010.5
2017-12-25T04:31:27.619Z,1010.48
2017-12-25T04:32:27.599Z,1010.43
2017-12-25T04:33:27.578Z,1010.46
2017-12-25T04:34:27.561Z,1010.38
2017-12-25T04:35:27.543Z,1010.42
2017-12-25T04:36:27.522Z,1010.37
2017-12-25T04:37:27.500Z,1010.38
2017-12-25T04:38:27.483Z,1010.36
2017-12-25T04:39:27.465Z,1010.32
2017-12-25T04:40:27.451Z,1010.35
2017-12-25T04:41:27.426Z,1010.36
2017-12-25T04:42:27.407Z,1010.37
2017-12-25T04:43:27.387Z,1010.32
2017-12-25T04:44:27.369Z,1010.33
2017-12-25T04:45:27.348Z,1010.38
2017-12-25T04:46:27.331Z,1010.32
2017-12-25T04:47:27.313Z,1010.31
2017-12-25T04:48:27.291Z,1010.3
2017-12-25T04:49:27.273Z,1010.29
2017-12-25T04:50:27.252Z,1010.28
2017-12-25T04:51:27.232Z,1010.26
2017-12-25T04:52:27.214Z,1010.3
2017-12-25T04:53:27.194Z,1010.29
2017-12-25T04:54:27.180Z,1010.29
2017-12-25T04:55:27.155Z,1010.28
2017-12-25T04:56:27.139Z,1010.28
2017-12-25T04:57:27.118Z,1010.25
2017-12-25T04:58:27.099Z,1010.22
2017-12-25T04:59:27.128Z,1010.24
2017-12-25T05:00:27.060Z,1010.28
2017-12-25T05:01:27.041Z,1010.3
2017-12-25T05:02:27.021Z,1010.26
2017-12-25T05:03:27.005Z,1010.31
2017-12-25T05:04:26.984Z,1010.3
2017-12-25T05:05:26.964Z,1010.33
2017-12-25T05:06:26.946Z,1010.34
2017-12-25T05:07:26.925Z,1010.32
2017-12-25T05:08:26.912Z,1010.25
2017-12-25T05:09:26.887Z,1010.29
2017-12-25T05:10:26.868Z,1010.22
2017-12-25T05:11:26.851Z,1010.27
2017-12-25T05:12:26.834Z,1010.21
2017-12-25T05:13:26.811Z,1010.21
2017-12-25T05:14:26.790Z,1010.18
2017-12-25T05:15:26.784Z,1010.2
2017-12-25T05:16:26.752Z,1010.19
2017-12-25T05:17:26.733Z,1010.25
2017-12-25T05:18:26.713Z,1010.21
2017-12-25T05:19:26.693Z,1010.27
2017-12-25T05:20:26.679Z,1010.2
2017-12-25T05:21:26.656Z,1010.19
2017-12-25T05:22:26.636Z,1010.23
2017-12-25T05:23:26.617Z,1010.21
2017-12-25T05:24:26.597Z,1010.15
2017-12-25T05:25:26.578Z,1010.18
2017-12-25T05:26:26.560Z,1010.14
2017-12-25T05:27:26.541Z,1010.16
2017-12-25T05:28:26.522Z,1010.17
2017-12-25T05:29:26.504Z,1010.13
2017-12-25T05:30:26.486Z,1010.13
2017-12-25T05:31:26.464Z,1010.12
2017-12-25T05:32:26.448Z,1010.1
2017-12-25T05:33:26.427Z,1010.1
2017-12-25T05:34:26.412Z,1010.11
2017-12-25T05:35:26.387Z,1010.16
2017-12-25T05:36:26.368Z,1010.03
2017-12-25T05:37:26.349Z,1010.06
2017-12-25T05:38:26.331Z,1009.98
2017-12-25T05:39:26.330Z,1010.08
2017-12-25T05:40:26.291Z,1010.02
2017-12-25T05:41:26.273Z,1010.05
2017-12-25T05:42:26.255Z,1010.02
2017-12-25T05:43:26.238Z,1010.06
2017-12-25T05:44:26.218Z,1010.08
2017-12-25T05:45:26.209Z,1010.02
2017-12-25T05:46:26.180Z,1010.05
2017-12-25T05:47:26.158Z,1010.04
2017-12-25T05:48:26.143Z,1010.01
2017-12-25T05:49:26.122Z,1009.97
2017-12-25T05:50:26.101Z,1009.97
2017-12-25T05:51:26.082Z,1009.93
2017-12-25T05:52:26.065Z,1009.97
2017-12-25T05:53:26.100Z,1009.94
2017-12-25T05:54:26.024Z,1009.97
2017-12-25T05:55:26.007Z,1010
2017-12-25T05:56:25.987Z,1009.94
2017-12-25T05:57:25.967Z,1009.94
2017-12-25T05:58:25.949Z,1009.9
2017-12-25T05:59:25.929Z,1009.9
2017-12-25T06:00:25.912Z,1009.86
2017-12-25T06:01:25.898Z,1009.9
2017-12-25T06:02:25.872Z,1009.87
2017-12-25T06:03:25.856Z,1009.85
2017-12-25T06:04:25.834Z,1009.84
2017-12-25T06:05:25.815Z,1009.85
2017-12-25T06:06:25.794Z,1009.86
2017-12-25T06:07:25.775Z,1009.83
2017-12-25T06:08:25.773Z,1009.85
2017-12-25T06:09:25.737Z,1009.74
2017-12-25T06:10:25.719Z,1009.79
2017-12-25T06:11:25.903Z,1009.8
2017-12-25T06:12:25.680Z,1009.77
2017-12-25T06:13:25.660Z,1009.77
2017-12-25T06:14:25.643Z,1009.72
2017-12-25T06:15:25.621Z,1009.78
2017-12-25T06:16:25.606Z,1009.73
2017-12-25T06:17:25.586Z,1009.68
2017-12-25T06:18:25.571Z,1009.74
2017-12-25T06:19:25.544Z,1009.69
2017-12-25T06:20:25.526Z,1009.69
2017-12-25T06:21:25.510Z,1009.7
2017-12-25T06:22:25.488Z,1009.68
2017-12-25T06:23:25.474Z,1009.67
2017-12-25T06:24:25.457Z,1009.59
2017-12-25T06:25:25.432Z,1009.64
2017-12-25T06:26:25.412Z,1009.63
2017-12-25T06:27:25.392Z,1009.58
2017-12-25T06:28:25.379Z,1009.64
2017-12-25T06:29:25.354Z,1009.62
2017-12-25T06:30:25.338Z,1009.63
2017-12-25T06:31:25.316Z,1009.69
2017-12-25T06:32:25.298Z,1009.63
2017-12-25T06:33:25.280Z,1009.65
2017-12-25T06:34:25.259Z,1009.65
2017-12-25T06:35:25.242Z,1009.69
2017-12-25T06:36:25.221Z,1009.65
2017-12-25T06:37:25.201Z,1009.7
2017-12-25T06:38:25.184Z,1009.65
2017-12-25T06:39:25.165Z,1009.68
2017-12-25T06:40:25.148Z,1009.7
2017-12-25T06:41:25.129Z,1009.61
2017-12-25T06:42:25.108Z,1009.61
2017-12-25T06:43:25.089Z,1009.67
2017-12-25T06:44:25.072Z,1009.68
2017-12-25T06:45:25.059Z,1009.69
2017-12-25T06:46:25.036Z,1009.63
2017-12-25T06:47:25.015Z,1009.65
2017-12-25T06:48:24.994Z,1009.63
2017-12-25T06:49:24.975Z,1009.62
2017-12-25T06:50:24.959Z,1009.58
2017-12-25T06:51:24.939Z,1009.62
2017-12-25T06:52:24.920Z,1009.59
2017-12-25T06:53:24.901Z,1009.63
2017-12-25T06:54:24.882Z,1009.59
2017-12-25T06:55:24.862Z,1009.65
2017-12-25T06:56:24.845Z,1009.72
2017-12-25T06:57:24.825Z,1009.62
2017-12-25T06:58:24.806Z,1009.56
2017-12-25T06:59:24.786Z,1009.5
2017-12-25T07:00:24.773Z,1009.48
2017-12-25T07:01:24.748Z,1009.56
2017-12-25T07:02:24.730Z,1009.46
2017-12-25T07:03:24.712Z,1009.49
2017-12-25T07:04:24.691Z,1009.44
2017-12-25T07:05:24.672Z,1009.37
2017-12-25T07:06:24.653Z,1009.4
2017-12-25T07:07:24.634Z,1009.41
2017-12-25T07:08:24.616Z,1009.42
2017-12-25T07:09:24.596Z,1009.45
2017-12-25T07:10:24.580Z,1009.45
2017-12-25T07:11:24.560Z,1009.47
2017-12-25T07:12:24.542Z,1009.42
2017-12-25T07:13:24.520Z,1009.38
2017-12-25T07:14:24.502Z,1009.46
2017-12-25T07:15:24.483Z,1009.44
2017-12-25T07:16:24.469Z,1009.41
2017-12-25T07:17:24.446Z,1009.37
2017-12-25T07:18:24.429Z,1009.36
2017-12-25T07:19:24.410Z,1009.35
2017-12-25T07:20:24.390Z,1009.3
2017-12-25T07:21:24.372Z,1009.35
2017-12-25T07:22:24.357Z,1009.31
2017-12-25T07:23:24.334Z,1009.36
2017-12-25T07:24:24.315Z,1009.32
2017-12-25T07:25:24.297Z,1009.35
2017-12-25T07:26:24.280Z,1009.38
2017-12-25T07:27:24.258Z,1009.29
2017-12-25T07:28:24.239Z,1009.32
2017-12-25T07:29:24.220Z,1009.24
2017-12-25T07:30:24.200Z,1009.27
2017-12-25T07:31:24.182Z,1009.37
2017-12-25T07:32:24.162Z,1009.36
2017-12-25T07:33:24.144Z,1009.35
2017-12-25T07:34:24.127Z,1009.28
2017-12-25T07:35:24.109Z,1009.34
2017-12-25T07:36:24.088Z,1009.26
2017-12-25T07:37:24.068Z,1009.31
2017-12-25T07:38:24.051Z,1009.31
2017-12-25T07:39:24.031Z,1009.33
2017-12-25T07:40:24.018Z,1009.34
2017-12-25T07:41:24.013Z,1009.29
2017-12-25T07:42:23.974Z,1009.34
2017-12-25T07:43:23.954Z,1009.3
2017-12-25T07:44:23.936Z,1009.3
2017-12-25T07:45:23.918Z,1009.25
2017-12-25T07:46:23.905Z,1009.3
2017-12-25T07:47:23.879Z,1009.24
2017-12-25T07:48:23.866Z,1009.23
2017-12-25T07:49:23.841Z,1009.26
2017-12-25T07:50:23.821Z,1009.29
2017-12-25T07:51:23.804Z,1009.28
2017-12-25T07:52:23.786Z,1009.33
2017-12-25T07:53:23.766Z,1009.3
2017-12-25T07:54:23.748Z,1009.36
2017-12-25T07:55:23.728Z,1009.33
2017-12-25T07:56:23.709Z,1009.3
2017-12-25T07:57:23.690Z,1009.31
2017-12-25T07:58:23.670Z,1009.29
2017-12-25T07:59:23.653Z,1009.34
2017-12-25T08:00:23.633Z,1009.3
2017-12-25T08:01:23.614Z,1009.35
2017-12-25T08:02:23.596Z,1009.45
2017-12-25T08:03:23.583Z,1009.3
2017-12-25T08:04:23.560Z,1009.27
2017-12-25T08:05:23.539Z,1009.27
2017-12-25T08:06:23.519Z,1009.2
2017-12-25T08:07:23.501Z,1009.23
2017-12-25T08:08:23.483Z,1009.28
2017-12-25T08:09:23.463Z,1009.19
2017-12-25T08:10:23.446Z,1009.17
2017-12-25T08:11:23.628Z,1009.14
2017-12-25T08:12:23.407Z,1009.14
2017-12-25T08:13:23.388Z,1009.17
2017-12-25T08:14:23.369Z,1009.17
2017-12-25T08:15:23.351Z,1009.24
2017-12-25T08:16:23.332Z,1009.16
2017-12-25T08:17:23.313Z,1009.16
2017-12-25T08:18:23.295Z,1009.13
2017-12-25T08:19:23.275Z,1009.15
2017-12-25T08:20:23.255Z,1009.2
2017-12-25T08:21:23.238Z,1009.13
2017-12-25T08:22:23.220Z,1009.13
2017-12-25T08:23:23.200Z,1009.14
2017-12-25T08:24:23.181Z,1009.13
2017-12-25T08:25:23.163Z,1009.13
2017-12-25T08:26:23.150Z,1009.12
2017-12-25T08:27:23.126Z,1009.17
2017-12-25T08:28:23.107Z,1009.14
2017-12-25T08:29:23.092Z,1009.15
2017-12-25T08:30:23.071Z,1009.16
2017-12-25T08:31:23.057Z,1009.25
2017-12-25T08:32:23.031Z,1009.15
2017-12-25T08:33:23.015Z,1009.18
2017-12-25T08:34:22.993Z,1009.2
2017-12-25T08:35:22.974Z,1009.23
2017-12-25T08:36:22.957Z,1009.2
2017-12-25T08:37:22.968Z,1009.12
2017-12-25T08:38:22.919Z,1009.15
2017-12-25T08:39:22.900Z,1009.21
2017-12-25T08:40:22.883Z,1009.2
2017-12-25T08:41:22.865Z,1009.19
2017-12-25T08:42:22.846Z,1009.18
2017-12-25T08:43:22.826Z,1009.19
2017-12-25T08:44:22.809Z,1009.21
2017-12-25T08:45:22.789Z,1009.21
2017-12-25T08:46:22.770Z,1009.17
2017-12-25T08:47:22.754Z,1009.22
2017-12-25T08:48:22.735Z,1009.18
2017-12-25T08:49:22.718Z,1009.23
2017-12-25T08:50:22.701Z,1009.21
2017-12-25T08:51:22.680Z,1009.21
2017-12-25T08:52:22.660Z,1009.15
2017-12-25T08:53:22.642Z,1009.23
2017-12-25T08:54:22.629Z,1009.19
2017-12-25T08:55:22.605Z,1009.18
2017-12-25T08:56:22.587Z,1009.12
2017-12-25T08:57:22.567Z,1009.18
2017-12-25T08:58:22.548Z,1009.21
2017-12-25T08:59:22.537Z,1009.14
2017-12-25T09:00:22.513Z,1009.21
2017-12-25T09:01:22.492Z,1009.22
2017-12-25T09:02:22.476Z,1009.24
2017-12-25T09:03:22.455Z,1009.15
2017-12-25T09:04:22.436Z,1009.22
2017-12-25T09:05:22.419Z,1009.14
2017-12-25T09:06:22.456Z,1009.15
2017-12-25T09:07:22.382Z,1009.16
2017-12-25T09:08:22.371Z,1009.21
2017-12-25T09:09:22.344Z,1009.2
2017-12-25T09:10:22.328Z,1009.23
2017-12-25T09:11:22.308Z,1009.24
2017-12-25T09:12:22.294Z,1009.21
2017-12-25T09:13:22.273Z,1009.2
2017-12-25T09:14:22.252Z,1009.17
2017-12-25T09:15:22.234Z,1009.25
2017-12-25T09:16:22.216Z,1009.22
2017-12-25T09:17:22.196Z,1009.26
2017-12-25T09:18:22.178Z,1009.27
2017-12-25T09:19:22.160Z,1009.27
2017-12-25T09:20:22.142Z,1009.25
2017-12-25T09:21:22.124Z,1009.24
2017-12-25T09:22:22.105Z,1009.17
2017-12-25T09:23:22.100Z,1009.22
2017-12-25T09:24:22.069Z,1009.27
2017-12-25T09:25:22.049Z,1009.18
2017-12-25T09:26:22.034Z,1009.3
2017-12-25T09:27:22.013Z,1009.19
2017-12-25T09:28:21.994Z,1009.19
2017-12-25T09:29:21.974Z,1009.19
2017-12-25T09:30:21.958Z,1009.2
2017-12-25T09:31:21.943Z,1009.27
2017-12-25T09:32:21.919Z,1009.26
2017-12-25T09:33:21.909Z,1009.3
2017-12-25T09:34:21.884Z,1009.34
2017-12-25T09:35:21.864Z,1009.36
2017-12-25T09:36:21.848Z,1009.34
2017-12-25T09:37:21.827Z,1009.35
2017-12-25T09:38:21.809Z,1009.34
2017-12-25T09:39:21.792Z,1009.39
2017-12-25T09:40:21.770Z,1009.36
2017-12-25T09:41:21.753Z,1009.38
2017-12-25T09:42:21.737Z,1009.36
2017-12-25T09:43:21.719Z,1009.45
2017-12-25T09:44:21.696Z,1009.36
2017-12-25T09:45:21.678Z,1009.44
2017-12-25T09:46:21.659Z,1009.35
2017-12-25T09:47:21.641Z,1009.41
2017-12-25T09:48:21.622Z,1009.4
2017-12-25T09:49:21.604Z,1009.43
2017-12-25T09:50:21.587Z,1009.39
2017-12-25T09:51:21.567Z,1009.39
2017-12-25T09:52:21.549Z,1009.41
2017-12-25T09:53:21.531Z,1009.37
2017-12-25T09:54:21.518Z,1009.36
2017-12-25T09:55:21.493Z,1009.42
2017-12-25T09:56:21.476Z,1009.37
2017-12-25T09:57:21.458Z,1009.36
2017-12-25T09:58:21.437Z,1009.35
2017-12-25T09:59:21.420Z,1009.33
2017-12-25T10:00:21.400Z,1009.31
2017-12-25T10:01:21.384Z,1009.31
2017-12-25T10:02:21.366Z,1009.3
2017-12-25T10:03:21.346Z,1009.31
2017-12-25T10:04:21.327Z,1009.3
2017-12-25T10:05:21.309Z,1009.27
2017-12-25T10:06:21.291Z,1009.19
2017-12-25T10:07:21.273Z,1009.24
2017-12-25T10:08:21.255Z,1009.2
2017-12-25T10:09:21.233Z,1009.22
2017-12-25T10:10:21.215Z,1009.19
2017-12-25T10:11:21.401Z,1009.22
2017-12-25T10:12:21.180Z,1009.21
2017-12-25T10:13:21.161Z,1009.17
2017-12-25T10:14:21.141Z,1009.14
2017-12-25T10:15:21.125Z,1009.15
2017-12-25T10:16:21.107Z,1009.17
2017-12-25T10:17:21.160Z,1009.15
2017-12-25T10:18:21.071Z,1009.12
2017-12-25T10:19:21.050Z,1009.07
2017-12-25T10:20:21.032Z,1009.07
2017-12-25T10:21:21.011Z,1009.13
2017-12-25T10:22:20.994Z,1009.05
2017-12-25T10:23:20.978Z,1009.02
2017-12-25T10:24:20.958Z,1009.02
2017-12-25T10:25:20.938Z,1009.01
2017-12-25T10:26:20.920Z,1009.03
2017-12-25T10:27:20.905Z,1009.01
2017-12-25T10:28:20.882Z,1008.96
2017-12-25T10:29:20.867Z,1008.98
2017-12-25T10:30:20.851Z,1008.94
2017-12-25T10:31:20.829Z,1008.83
2017-12-25T10:32:20.809Z,1008.87
2017-12-25T10:33:20.794Z,1008.9
2017-12-25T10:34:20.773Z,1008.86
2017-12-25T10:35:20.754Z,1008.78
2017-12-25T10:36:20.736Z,1008.76
2017-12-25T10:37:20.718Z,1008.69
2017-12-25T10:38:20.697Z,1008.72
2017-12-25T10:39:20.679Z,1008.71
2017-12-25T10:40:20.665Z,1008.69
2017-12-25T10:41:20.644Z,1008.68
2017-12-25T10:42:20.627Z,1008.66
2017-12-25T10:43:20.605Z,1008.59
2017-12-25T10:44:20.588Z,1008.58
2017-12-25T10:45:20.569Z,1008.56
2017-12-25T10:46:20.550Z,1008.53
2017-12-25T10:47:20.534Z,1008.55
2017-12-25T10:48:20.520Z,1008.54
2017-12-25T10:49:20.496Z,1008.48
2017-12-25T10:50:20.481Z,1008.51
2017-12-25T10:51:20.458Z,1008.47
2017-12-25T10:52:20.439Z,1008.41
2017-12-25T10:53:20.422Z,1008.43
2017-12-25T10:54:20.405Z,1008.4
2017-12-25T10:55:20.387Z,1008.45
2017-12-25T10:56:20.369Z,1008.38
2017-12-25T10:57:20.348Z,1008.42
2017-12-25T10:58:20.332Z,1008.41
2017-12-25T10:59:20.314Z,1008.37
2017-12-25T11:00:20.294Z,1008.37
2017-12-25T11:01:20.277Z,1008.27
2017-12-25T11:02:20.263Z,1008.29
2017-12-25T11:03:20.249Z,1008.32
2017-12-25T11:04:20.219Z,1008.27
2017-12-25T11:05:20.403Z,1008.4
2017-12-25T11:06:20.275Z,1008.26
2017-12-25T11:07:20.167Z,1008.28
2017-12-25T11:08:20.144Z,1008.31
2017-12-25T11:09:20.130Z,1008.26
2017-12-25T11:10:20.109Z,1008.26
2017-12-25T11:11:20.143Z,1008.25
2017-12-25T11:12:20.071Z,1008.25
2017-12-25T11:13:20.052Z,1008.21
2017-12-25T11:14:20.040Z,1008.24
2017-12-25T11:15:20.017Z,1008.2
2017-12-25T11:16:19.999Z,1008.15
2017-12-25T11:17:19.980Z,1008.15
2017-12-25T11:18:19.963Z,1008.15
2017-12-25T11:19:19.944Z,1008.13
2017-12-25T11:20:19.923Z,1008.18
2017-12-25T11:21:19.943Z,1008.05
2017-12-25T11:22:20.254Z,1008.05
2017-12-25T11:23:19.869Z,1008.07
2017-12-25T11:24:19.852Z,1007.99
2017-12-25T11:25:19.831Z,1008.04
2017-12-25T11:26:19.823Z,1007.99
2017-12-25T11:27:19.796Z,1007.98
2017-12-25T11:28:19.780Z,1007.93
2017-12-25T11:29:19.758Z,1007.99
2017-12-25T11:30:19.739Z,1007.96
2017-12-25T11:31:19.721Z,1007.89
2017-12-25T11:32:19.705Z,1007.9
2017-12-25T11:33:19.685Z,1007.86
2017-12-25T11:34:19.665Z,1007.78
2017-12-25T11:35:19.647Z,1007.83
2017-12-25T11:36:19.629Z,1007.78
2017-12-25T11:37:19.609Z,1007.8
2017-12-25T11:38:19.592Z,1007.77
2017-12-25T11:39:19.573Z,1007.75
2017-12-25T11:40:19.555Z,1007.73
2017-12-25T11:41:19.537Z,1007.75
2017-12-25T11:42:19.519Z,1007.74
2017-12-25T11:43:19.551Z,1007.62
2017-12-25T11:44:19.481Z,1007.69
2017-12-25T11:45:19.464Z,1007.61
2017-12-25T11:46:19.444Z,1007.59
2017-12-25T11:47:19.428Z,1007.68
2017-12-25T11:48:19.416Z,1007.64
2017-12-25T11:49:19.393Z,1007.57
2017-12-25T11:50:19.381Z,1007.56
2017-12-25T11:51:19.420Z,1007.57
2017-12-25T11:52:19.340Z,1007.5
2017-12-25T11:53:19.315Z,1007.52
2017-12-25T11:54:19.308Z,1007.59
2017-12-25T11:55:19.284Z,1007.52
2017-12-25T11:56:19.268Z,1007.47
2017-12-25T11:57:19.242Z,1007.61
2017-12-25T11:58:19.226Z,1007.48
2017-12-25T11:59:19.206Z,1007.54
2017-12-25T12:00:19.189Z,1007.48
2017-12-25T12:01:19.167Z,1007.43
2017-12-25T12:02:19.150Z,1007.42
2017-12-25T12:03:19.198Z,1007.41
2017-12-25T12:04:19.117Z,1007.34
2017-12-25T12:05:19.096Z,1007.42
2017-12-25T12:06:19.075Z,1007.36
2017-12-25T12:07:19.058Z,1007.3
2017-12-25T12:08:19.040Z,1007.33
2017-12-25T12:09:19.036Z,1007.26